createdAt,value
2023-03-29T00:02:04.628Z,101642.27
2023-03-29T00:04:53.527Z,101641.15
2023-03-29T00:07:39.572Z,101647.59
2023-03-29T00:10:26.539Z,101650.75
2023-03-29T00:13:13.012Z,101653.46
2023-03-29T00:15:59.508Z,101653.43
2023-03-29T00:18:45.954Z,101653.15
2023-03-29T00:21:32.517Z,101648.70
2023-03-29T00:24:18.952Z,101648.23
2023-03-29T00:27:05.591Z,101644.02
2023-03-29T00:29:52.159Z,101642.54
2023-03-29T00:32:39.325Z,101644.87
2023-03-29T00:35:25.686Z,101638.58
2023-03-29T00:38:13.150Z,101637.83
2023-03-29T00:40:59.948Z,101641.15
2023-03-29T00:44:01.724Z,101634.91
2023-03-29T00:46:48.562Z,101634.09
2023-03-29T00:49:35.992Z,101628.23
2023-03-29T00:52:22.805Z,101631.48
2023-03-29T00:55:19.198Z,101634.89
2023-03-29T00:58:10.067Z,101631.98
2023-03-29T01:01:02.176Z,101628.77
2023-03-29T01:03:55.240Z,101625.58
2023-03-29T01:06:43.806Z,101626.27
2023-03-29T01:09:35.222Z,101616.45
2023-03-29T01:12:32.800Z,101617.79
2023-03-29T01:15:27.196Z,101624.96
2023-03-29T01:18:14.378Z,101619.27
2023-03-29T01:21:27.890Z,101619.70
2023-03-29T01:24:32.963Z,101616.05
2023-03-29T01:27:44.189Z,101616.30
2023-03-29T01:30:41.057Z,101617.06
2023-03-29T01:33:33.524Z,101601.28
2023-03-29T01:36:31.349Z,101605.86
2023-03-29T01:39:19.025Z,101604.44
2023-03-29T01:42:29.950Z,101602.83
2023-03-29T01:46:01.934Z,101600.89
2023-03-29T01:48:56.906Z,101594.88
2023-03-29T01:52:08.172Z,101593.35
2023-03-29T01:55:18.453Z,101591.95
2023-03-29T01:58:08.455Z,101597.20
2023-03-29T02:00:55.499Z,101594.98
2023-03-29T02:03:47.285Z,101597.77
2023-03-29T02:06:36.179Z,101598.38
2023-03-29T02:09:23.496Z,101594.13
2023-03-29T02:12:12.668Z,101594.31
2023-03-29T02:15:00.910Z,101594.55
2023-03-29T02:17:49.504Z,101591.17
2023-03-29T02:20:40.668Z,101594.98
2023-03-29T02:23:36.208Z,101595.32
2023-03-29T02:26:24.015Z,101594.24
2023-03-29T02:29:11.096Z,101594.48
2023-03-29T02:32:09.919Z,101596.10
2023-03-29T02:35:07.275Z,101593.81
2023-03-29T02:37:57.447Z,101601.66
2023-03-29T02:40:45.518Z,101603.19
2023-03-29T02:43:34.659Z,101603.98
2023-03-29T02:46:21.584Z,101601.75
2023-03-29T02:49:10.306Z,101602.12
2023-03-29T02:52:04.260Z,101597.86
2023-03-29T02:54:54.519Z,101593.61
2023-03-29T03:00:29.955Z,101588.82
2023-03-29T03:03:17.070Z,101587.27
2023-03-29T03:06:07.062Z,101587.23
2023-03-29T03:08:53.893Z,101587.45
2023-03-29T03:11:40.416Z,101584.02
2023-03-29T03:14:28.340Z,101590.73
2023-03-29T03:17:18.787Z,101590.65
2023-03-29T03:20:13.235Z,101590.70
2023-03-29T03:23:01.278Z,101588.33
2023-03-29T03:25:49.246Z,101590.18
2023-03-29T03:28:35.691Z,101587.66
2023-03-29T03:31:23.992Z,101588.58
2023-03-29T03:34:31.309Z,101589.32
2023-03-29T03:37:20.076Z,101588.68
2023-03-29T03:40:08.961Z,101592.37
2023-03-29T03:42:55.504Z,101586.22
2023-03-29T03:45:42.945Z,101587.80
2023-03-29T03:48:34.094Z,101586.84
2023-03-29T03:51:27.909Z,101584.32
2023-03-29T03:54:14.289Z,101582.21
2023-03-29T03:57:26.790Z,101581.32
2023-03-29T04:00:20.481Z,101581.19
2023-03-29T04:03:12.281Z,101585.94
2023-03-29T04:06:02.229Z,101583.23
2023-03-29T04:08:53.926Z,101577.60
2023-03-29T04:11:56.909Z,101574.72
2023-03-29T04:14:43.408Z,101577.75
2023-03-29T04:17:36.489Z,101581.38
2023-03-29T04:20:39.726Z,101580.92
2023-03-29T04:23:26.594Z,101577.30
2023-03-29T04:26:15.900Z,101576.21
2023-03-29T04:29:08.461Z,101573.27
2023-03-29T04:32:00.832Z,101572.35
2023-03-29T04:35:01.662Z,101570.83
2023-03-29T04:37:48.315Z,101565.94
2023-03-29T04:40:35.779Z,101568.04
2023-03-29T04:43:31.277Z,101562.38
2023-03-29T04:46:40.372Z,101567.98
2023-03-29T04:49:51.752Z,101571.41
2023-03-29T04:52:51.447Z,101563.38
2023-03-29T04:55:38.312Z,101561.03
2023-03-29T04:58:32.192Z,101554.92
2023-03-29T05:01:19.700Z,101546.61
2023-03-29T05:04:15.331Z,101543.41
2023-03-29T05:07:13.221Z,101545.70
2023-03-29T05:10:00.216Z,101544.91
2023-03-29T05:12:47.356Z,101541.55
2023-03-29T05:15:33.782Z,101535.27
2023-03-29T05:18:20.210Z,101537.39
2023-03-29T05:21:07.670Z,101536.63
2023-03-29T05:23:55.265Z,101541.66
2023-03-29T05:27:08.261Z,101548.83
2023-03-29T05:29:56.223Z,101544.70
2023-03-29T05:32:48.005Z,101543.13
2023-03-29T05:35:36.191Z,101544.36
2023-03-29T05:38:24.127Z,101539.49
2023-03-29T05:41:11.484Z,101537.76
2023-03-29T05:44:17.084Z,101527.84
2023-03-29T05:47:04.379Z,101541.06
2023-03-29T05:49:51.518Z,101536.65
2023-03-29T05:52:43.495Z,101534.56
2023-03-29T05:55:29.822Z,101526.61
2023-03-29T05:58:18.048Z,101529.71
2023-03-29T06:01:10.536Z,101524.94
2023-03-29T06:04:14.388Z,101521.41
2023-03-29T06:07:08.612Z,101522.95
2023-03-29T06:09:55.557Z,101517.81
2023-03-29T06:12:42.755Z,101519.88
2023-03-29T06:15:29.930Z,101520.42
2023-03-29T06:18:23.383Z,101518.56
2023-03-29T06:21:10.730Z,101513.92
2023-03-29T06:23:57.821Z,101511.98
2023-03-29T06:26:45.213Z,101510.42
2023-03-29T06:29:32.037Z,101513.93
2023-03-29T06:32:18.647Z,101514.80
2023-03-29T06:35:18.718Z,101517.13
2023-03-29T06:38:11.964Z,101516.30
2023-03-29T06:41:16.882Z,101514.41
2023-03-29T06:44:29.857Z,101511.90
2023-03-29T06:47:30.910Z,101504.92
2023-03-29T06:50:18.806Z,101501.96
2023-03-29T06:53:13.613Z,101494.09
2023-03-29T06:56:05.300Z,101490.20
2023-03-29T06:59:03.454Z,101489.90
2023-03-29T07:02:02.850Z,101484.52
2023-03-29T07:05:16.300Z,101479.34
2023-03-29T07:08:06.114Z,101475.48
2023-03-29T07:11:04.010Z,101468.26
2023-03-29T07:13:57.007Z,101471.08
2023-03-29T07:16:47.223Z,101467.33
2023-03-29T07:19:38.360Z,101469.26
2023-03-29T07:22:33.004Z,101464.05
2023-03-29T07:25:22.508Z,101469.27
2023-03-29T07:28:09.479Z,101468.39
2023-03-29T07:31:11.314Z,101461.38
2023-03-29T07:34:05.627Z,101460.16
2023-03-29T07:36:52.251Z,101458.20
2023-03-29T07:39:38.690Z,101452.15
2023-03-29T07:42:48.749Z,101452.56
2023-03-29T07:45:37.885Z,101450.80
2023-03-29T07:48:29.855Z,101446.55
2023-03-29T07:51:19.125Z,101448.19
2023-03-29T07:54:08.420Z,101451.25
2023-03-29T07:56:55.429Z,101446.90
2023-03-29T07:59:51.839Z,101441.71
2023-03-29T08:02:46.707Z,101442.23
2023-03-29T08:05:40.672Z,101434.73
2023-03-29T08:08:34.808Z,101433.34
2023-03-29T08:11:31.505Z,101437.24
2023-03-29T08:14:24.510Z,101429.06
2023-03-29T08:17:16.851Z,101437.35
2023-03-29T08:20:10.780Z,101432.29
2023-03-29T08:22:58.735Z,101429.41
2023-03-29T08:26:09.396Z,101424.29
2023-03-29T08:28:56.840Z,101421.77
2023-03-29T08:31:43.891Z,101422.33
2023-03-29T08:34:31.849Z,101420.90
2023-03-29T08:37:37.856Z,101420.00
2023-03-29T08:40:28.174Z,101413.16
2023-03-29T08:44:07.247Z,101407.09
2023-03-29T08:47:25.360Z,101401.69
2023-03-29T08:50:13.870Z,101403.15
2023-03-29T08:53:05.686Z,101403.89
2023-03-29T08:56:34.019Z,101399.79
2023-03-29T08:59:41.689Z,101398.51
2023-03-29T09:02:32.587Z,101398.70
2023-03-29T09:05:27.444Z,101401.80
2023-03-29T09:08:40.188Z,101400.30
2023-03-29T09:11:45.159Z,101398.26
2023-03-29T09:14:55.858Z,101400.55
2023-03-29T09:17:58.380Z,101394.51
2023-03-29T09:20:52.610Z,101394.38
2023-03-29T09:24:15.823Z,101388.46
2023-03-29T09:27:26.558Z,101381.72
2023-03-29T09:30:41.526Z,101379.59
2023-03-29T09:33:42.817Z,101377.08
2023-03-29T09:36:56.641Z,101374.55
2023-03-29T09:39:43.850Z,101371.75
2023-03-29T09:42:32.610Z,101359.51
2023-03-29T09:45:19.630Z,101359.57
2023-03-29T09:48:17.741Z,101358.23
2023-03-29T09:51:11.427Z,101360.70
2023-03-29T09:54:00.234Z,101360.70
2023-03-29T09:57:20.334Z,101354.05
2023-03-29T10:00:10.634Z,101355.38
2023-03-29T10:03:07.456Z,101354.87
2023-03-29T10:06:06.920Z,101350.23
2023-03-29T10:08:59.078Z,101347.35
2023-03-29T10:11:55.239Z,101338.09
2023-03-29T10:14:48.137Z,101340.36
2023-03-29T10:17:40.975Z,101340.82
2023-03-29T10:20:28.246Z,101334.36
2023-03-29T10:23:18.550Z,101338.48
2023-03-29T10:26:10.277Z,101336.34
2023-03-29T10:29:00.320Z,101333.15
2023-03-29T10:31:46.673Z,101329.33
2023-03-29T10:34:33.897Z,101325.73
2023-03-29T10:37:21.296Z,101324.05
2023-03-29T10:40:19.674Z,101318.88
2023-03-29T10:43:24.654Z,101314.25
2023-03-29T10:46:22.195Z,101305.05
2023-03-29T10:49:20.719Z,101318.61
2023-03-29T10:52:08.284Z,101307.70
2023-03-29T10:54:56.632Z,101302.81
2023-03-29T10:57:50.475Z,101304.93
2023-03-29T11:00:52.341Z,101301.35
2023-03-29T11:03:54.745Z,101293.46
2023-03-29T11:06:52.634Z,101291.60
2023-03-29T11:09:59.310Z,101295.76
2023-03-29T11:12:56.082Z,101289.64
2023-03-29T11:16:11.030Z,101288.29
2023-03-29T11:19:15.452Z,101284.30
2023-03-29T11:22:19.729Z,101277.16
2023-03-29T11:25:20.614Z,101267.06
2023-03-29T11:28:49.265Z,101258.01
2023-03-29T11:31:54.174Z,101252.30
2023-03-29T11:35:03.262Z,101248.30
2023-03-29T11:38:08.553Z,101252.46
2023-03-29T11:41:00.905Z,101247.13
2023-03-29T11:43:54.233Z,101239.02
2023-03-29T11:46:48.125Z,101230.14
2023-03-29T11:49:49.376Z,101225.65
2023-03-29T11:53:01.407Z,101211.88
2023-03-29T11:55:51.396Z,101213.05
2023-03-29T11:58:42.534Z,101207.89
2023-03-29T12:01:38.574Z,101210.85
2023-03-29T12:04:32.660Z,101201.27
2023-03-29T12:07:28.291Z,101201.48
2023-03-29T12:10:17.302Z,101197.25
2023-03-29T12:13:12.052Z,101197.16
2023-03-29T12:16:05.705Z,101196.84
2023-03-29T12:18:57.300Z,101193.89
2023-03-29T12:21:46.770Z,101186.55
2023-03-29T12:24:38.750Z,101187.14
2023-03-29T12:27:59.656Z,101187.48
2023-03-29T12:31:06.443Z,101183.33
2023-03-29T12:34:01.966Z,101171.90
2023-03-29T12:37:27.027Z,101171.25
2023-03-29T12:40:45.702Z,101166.05
2023-03-29T12:43:51.514Z,101165.90
2023-03-29T12:47:00.659Z,101163.38
2023-03-29T12:49:47.704Z,101163.52
2023-03-29T12:52:36.265Z,101160.91
2023-03-29T12:55:32.369Z,101161.36
2023-03-29T12:58:26.852Z,101157.09
2023-03-29T13:01:32.110Z,101161.61
2023-03-29T13:04:42.328Z,101160.96
2023-03-29T13:07:32.988Z,101160.42
2023-03-29T13:10:42.084Z,101154.15
2023-03-29T13:13:33.846Z,101149.77
2023-03-29T13:16:30.319Z,101150.73
2023-03-29T13:19:32.481Z,101153.67
2023-03-29T13:22:31.324Z,101152.13
2023-03-29T13:25:47.004Z,101145.34
2023-03-29T13:29:04.746Z,101144.02
2023-03-29T13:31:56.981Z,101134.39
2023-03-29T13:35:06.367Z,101139.95
2023-03-29T13:38:20.770Z,101134.98
2023-03-29T13:41:39.520Z,101130.64
2023-03-29T13:44:33.883Z,101131.37
2023-03-29T13:47:32.637Z,101127.34
2023-03-29T13:50:33.582Z,101121.29
2023-03-29T13:53:29.271Z,101114.35
2023-03-29T13:56:22.415Z,101110.14
2023-03-29T13:59:19.158Z,101107.98
2023-03-29T14:02:06.656Z,101103.70
2023-03-29T14:04:54.075Z,101098.98
2023-03-29T14:07:46.545Z,101102.40
2023-03-29T14:10:42.429Z,101098.00
2023-03-29T14:13:30.153Z,101084.79
2023-03-29T14:16:16.591Z,101078.91
2023-03-29T14:19:06.182Z,101082.84
2023-03-29T14:21:53.267Z,101079.67
2023-03-29T14:24:48.060Z,101080.20
2023-03-29T14:27:37.190Z,101078.98
2023-03-29T14:30:27.962Z,101083.84
2023-03-29T14:33:14.686Z,101072.35
2023-03-29T14:36:06.359Z,101069.09
2023-03-29T14:39:06.412Z,101063.39
2023-03-29T14:41:55.411Z,101065.77
2023-03-29T14:44:43.393Z,101068.86
2023-03-29T14:47:32.987Z,101061.99
2023-03-29T14:50:25.293Z,101052.13
2023-03-29T14:53:24.298Z,101042.67
2023-03-29T14:56:14.583Z,101042.08
2023-03-29T14:59:03.598Z,101045.95
2023-03-29T15:01:50.352Z,101039.06
2023-03-29T15:04:37.485Z,101031.06
2023-03-29T15:07:27.230Z,101022.67
2023-03-29T15:10:23.088Z,101013.48
2023-03-29T15:13:17.558Z,101011.09
2023-03-29T15:16:08.117Z,101011.52
2023-03-29T15:18:54.733Z,101009.67
2023-03-29T15:21:41.258Z,101009.91
2023-03-29T15:24:29.275Z,101018.62
2023-03-29T15:27:18.295Z,101009.98
2023-03-29T15:30:14.011Z,100999.38
2023-03-29T15:33:39.987Z,100997.36
2023-03-29T15:36:27.254Z,100997.38
2023-03-29T15:39:17.144Z,100999.30
2023-03-29T15:42:04.184Z,100999.52
2023-03-29T15:44:54.806Z,100995.73
2023-03-29T15:47:41.320Z,100992.95
2023-03-29T15:50:28.062Z,100985.48
2023-03-29T15:53:17.169Z,100985.23
2023-03-29T15:56:07.495Z,100982.10
2023-03-29T15:58:54.419Z,100984.69
2023-03-29T16:01:41.935Z,100983.34
2023-03-29T16:04:28.830Z,100979.83
2023-03-29T16:07:17.536Z,100983.15
2023-03-29T16:10:04.107Z,100985.22
2023-03-29T16:12:50.797Z,100981.53
2023-03-29T16:15:37.808Z,100985.25
2023-03-29T16:18:24.515Z,100983.92
2023-03-29T16:21:16.348Z,100977.96
2023-03-29T16:24:03.926Z,100972.96
2023-03-29T16:26:54.000Z,100973.89
2023-03-29T16:29:42.082Z,100973.14
2023-03-29T16:32:28.757Z,100973.09
2023-03-29T16:35:29.102Z,100971.56
2023-03-29T16:38:15.558Z,100970.21
2023-03-29T16:41:02.644Z,100969.35
2023-03-29T16:43:49.376Z,100971.06
2023-03-29T16:46:35.839Z,100970.01
2023-03-29T16:49:22.449Z,100966.39
2023-03-29T16:52:09.162Z,100960.68
2023-03-29T16:54:55.425Z,100962.95
2023-03-29T16:57:42.626Z,100964.61
2023-03-29T17:00:29.529Z,100956.20
2023-03-29T17:03:16.964Z,100957.36
2023-03-29T17:06:05.643Z,100959.50
2023-03-29T17:08:53.841Z,100954.98
2023-03-29T17:11:41.481Z,100954.97
2023-03-29T17:14:28.697Z,100952.41
2023-03-29T17:17:16.101Z,100958.83
2023-03-29T17:20:02.650Z,100956.55
2023-03-29T17:22:52.203Z,100956.83
2023-03-29T17:25:38.745Z,100956.36
2023-03-29T17:28:25.309Z,100952.33
2023-03-29T17:31:12.134Z,100959.83
2023-03-29T17:33:58.540Z,100962.31
2023-03-29T17:36:45.982Z,100963.29
2023-03-29T17:39:37.564Z,100965.34
2023-03-29T17:42:24.145Z,100962.69
2023-03-29T17:45:11.278Z,100960.70
2023-03-29T17:47:58.274Z,100957.36
2023-03-29T17:50:44.730Z,100948.91
2023-03-29T17:53:31.231Z,100953.25
2023-03-29T17:56:20.300Z,100957.19
2023-03-29T17:59:06.665Z,100958.45
2023-03-29T18:01:53.425Z,100958.34
2023-03-29T18:04:39.656Z,100955.52
2023-03-29T18:07:26.168Z,100954.96
2023-03-29T18:10:12.605Z,100957.78
2023-03-29T18:13:00.115Z,100951.29
2023-03-29T18:15:47.580Z,100950.39
2023-03-29T18:18:34.966Z,100951.96
2023-03-29T18:21:22.123Z,100951.20
2023-03-29T18:24:08.504Z,100948.42
2023-03-29T18:26:55.163Z,100944.70
2023-03-29T18:29:41.496Z,100937.96
2023-03-29T18:32:28.310Z,100936.04
2023-03-29T18:35:15.124Z,100930.11
2023-03-29T18:38:03.345Z,100929.48
2023-03-29T18:40:50.608Z,100928.15
2023-03-29T18:43:38.798Z,100932.72
2023-03-29T18:46:25.882Z,100924.92
2023-03-29T18:49:13.234Z,100925.39
2023-03-29T18:51:59.859Z,100909.20
2023-03-29T18:54:46.495Z,100916.08
2023-03-29T18:57:33.089Z,100914.39
2023-03-29T19:00:20.011Z,100916.30
2023-03-29T19:03:07.629Z,100911.67
2023-03-29T19:05:55.799Z,100920.89
2023-03-29T19:08:42.671Z,100924.81
2023-03-29T19:11:30.040Z,100925.82
2023-03-29T19:14:23.323Z,100924.73
2023-03-29T19:17:09.809Z,100929.38
2023-03-29T19:19:56.848Z,100920.48
2023-03-29T19:22:43.172Z,100919.17
2023-03-29T19:25:33.021Z,100918.44
2023-03-29T19:28:19.503Z,100912.34
2023-03-29T19:31:05.762Z,100912.86
2023-03-29T19:33:52.201Z,100903.15
2023-03-29T19:36:39.290Z,100902.80
2023-03-29T19:39:27.960Z,100895.95
2023-03-29T19:42:15.015Z,100901.76
2023-03-29T19:45:02.478Z,100902.77
2023-03-29T19:47:57.737Z,100901.77
2023-03-29T19:50:45.672Z,100910.04
2023-03-29T19:53:32.916Z,100914.17
2023-03-29T19:56:19.965Z,100917.48
2023-03-29T19:59:06.922Z,100909.58
2023-03-29T20:01:56.853Z,100915.23
2023-03-29T20:04:44.101Z,100911.70
2023-03-29T20:07:30.473Z,100912.77
2023-03-29T20:10:17.292Z,100915.05
2023-03-29T20:13:06.281Z,100915.36
2023-03-29T20:15:53.471Z,100909.94
2023-03-29T20:18:39.807Z,100910.95
2023-03-29T20:21:26.277Z,100909.30
2023-03-29T20:24:12.609Z,100903.41
2023-03-29T20:26:58.840Z,100907.27
2023-03-29T20:29:45.921Z,100899.38
2023-03-29T20:32:32.478Z,100896.71
2023-03-29T20:35:19.177Z,100895.55
2023-03-29T20:38:05.895Z,100889.52
2023-03-29T20:40:53.552Z,100892.60
2023-03-29T20:43:41.292Z,100890.43
2023-03-29T20:46:35.068Z,100888.07
2023-03-29T20:49:26.281Z,100884.34
2023-03-29T20:52:17.710Z,100883.83
2023-03-29T20:55:05.689Z,100886.60
2023-03-29T20:57:59.513Z,100882.32
2023-03-29T21:00:48.598Z,100885.31
2023-03-29T21:03:37.622Z,100885.44
2023-03-29T21:06:24.598Z,100886.30
2023-03-29T21:09:10.848Z,100886.58
2023-03-29T21:11:57.491Z,100885.93
2023-03-29T21:14:44.933Z,100883.77
2023-03-29T21:17:31.334Z,100881.27
2023-03-29T21:20:18.720Z,100871.52
2023-03-29T21:23:05.188Z,100875.40
2023-03-29T21:25:52.004Z,100874.09
2023-03-29T21:28:38.236Z,100872.05
2023-03-29T21:31:24.848Z,100867.41
2023-03-29T21:34:11.060Z,100864.00
2023-03-29T21:36:58.317Z,100861.50
2023-03-29T21:39:45.026Z,100860.07
2023-03-29T21:42:34.966Z,100854.21
2023-03-29T21:45:21.950Z,100854.21
2023-03-29T21:48:08.684Z,100849.05
2023-03-29T21:50:55.428Z,100849.33
2023-03-29T21:53:42.282Z,100843.80
2023-03-29T21:56:28.943Z,100845.88
2023-03-29T21:59:15.453Z,100841.73
2023-03-29T22:02:02.203Z,100836.44
2023-03-29T22:04:49.076Z,100831.94
2023-03-29T22:07:38.785Z,100832.93
2023-03-29T22:10:25.810Z,100827.08
2023-03-29T22:13:12.488Z,100826.66
2023-03-29T22:16:01.091Z,100825.32
2023-03-29T22:18:49.164Z,100822.34
2023-03-29T22:21:37.318Z,100820.05
2023-03-29T22:24:23.962Z,100816.40
2023-03-29T22:27:11.748Z,100818.04
2023-03-29T22:29:58.758Z,100810.41
2023-03-29T22:32:45.597Z,100810.49
2023-03-29T22:35:34.842Z,100808.30
2023-03-29T22:38:21.429Z,100807.31
2023-03-29T22:41:08.645Z,100808.98
2023-03-29T22:43:57.720Z,100808.33
2023-03-29T22:46:44.513Z,100806.65
2023-03-29T22:49:31.627Z,100813.14
2023-03-29T22:52:18.330Z,100816.20
2023-03-29T22:55:05.435Z,100815.17
2023-03-29T22:57:51.746Z,100813.21
2023-03-29T23:00:38.259Z,100815.06
2023-03-29T23:03:25.402Z,100815.25
2023-03-29T23:06:12.021Z,100818.14
2023-03-29T23:08:58.877Z,100814.95
2023-03-29T23:11:45.624Z,100819.21
2023-03-29T23:14:33.793Z,100812.79
2023-03-29T23:17:20.512Z,100816.10
2023-03-29T23:20:08.769Z,100816.48
2023-03-29T23:22:55.257Z,100814.05
2023-03-29T23:25:49.710Z,100810.54
2023-03-29T23:28:38.209Z,100809.63
2023-03-29T23:31:25.585Z,100808.94
2023-03-29T23:34:13.661Z,100807.48
2023-03-29T23:37:00.383Z,100802.73
2023-03-29T23:39:47.090Z,100796.04
2023-03-29T23:42:33.692Z,100785.45
2023-03-29T23:45:20.401Z,100790.23
2023-03-29T23:48:07.638Z,100786.48
2023-03-29T23:50:57.096Z,100784.19
2023-03-29T23:53:43.246Z,100779.30
2023-03-29T23:56:29.775Z,100778.77
2023-03-29T23:59:16.932Z,100772.92
